Time;durP1;ratioP1;P1;durP2;ratioP2;P2;SDS_P1;SDS_P2;PMS_P1;PMS_P2;Temp;Humidity;BMP_temperature;BMP_pressure;BME280_temperature;BME280_humidity;BME280_pressure;Samples;Min_cycle;Max_cycle;Signal;HPM_P1;HPM_P2
2020/12/10 00:00:37;;;;;;;;;;;;;;;-7.99;75.09;102331.91;1867355;77;20161;-36
2020/12/10 00:03:05;;;;;;;;;;;;;;;-8.01;75.20;102338.16;1867660;76;20172;-37
2020/12/10 00:05:33;;;;;;;;;;;;;;;-8.03;75.29;102330.77;1867438;77;20229;-37
2020/12/10 00:08:02;;;;;;;;;;;;;;;-8.02;75.39;102326.58;1867446;77;20504;-37
2020/12/10 00:10:29;;;;;;;;;;;;;;;-8.05;75.47;102309.00;1867207;76;20227;-37
2020/12/10 00:12:58;;;;;;;;;;;;;;;-8.03;75.57;102318.42;1867373;76;20212;-35
2020/12/10 00:15:26;;;;;;;;;;;;;;;-8.06;75.66;102316.12;1867339;76;20121;-35
2020/12/10 00:17:54;;;;;;;;;;;;;;;-8.05;75.71;102319.19;1867297;77;20489;-36
2020/12/10 00:20:22;;;;;;;;;;;;;;;-8.07;75.75;102314.72;1867588;77;20275;-36
2020/12/10 00:22:50;;;;;;;;;;;;;;;-8.09;75.85;102316.27;1867573;77;20137;-35
2020/12/10 00:25:17;;;;;;;;;;;;;;;-8.11;75.94;102313.97;1867576;77;20266;-37
2020/12/10 00:27:45;;;;;;;;;;;;;;;-8.11;76.01;102321.59;1867246;77;20148;-35
2020/12/10 00:30:13;;;;;;;;;;;;;;;-8.12;76.13;102307.09;1867262;77;20160;-36
2020/12/10 00:32:41;;;;;;;;;;;;;;;-8.11;76.23;102304.69;1867476;75;20132;-36
2020/12/10 00:35:10;;;;;;;;;;;;;;;-8.10;76.29;102306.47;1867331;77;20418;-36
2020/12/10 00:37:37;;;;;;;;;;;;;;;-8.10;76.34;102296.67;1867456;77;20271;-36
2020/12/10 00:40:06;;;;;;;;;;;;;;;-8.12;76.34;102302.00;1867351;77;20120;-43
2020/12/10 00:42:34;;;;;;;;;;;;;;;-8.14;76.39;102299.73;1867636;77;20156;-36
2020/12/10 00:45:03;;;;;;;;;;;;;;;-8.17;76.43;102304.17;1867520;77;20282;-35
2020/12/10 00:47:31;;;;;;;;;;;;;;;-8.19;76.48;102313.32;1867530;77;20129;-37
2020/12/10 00:50:00;;;;;;;;;;;;;;;-8.21;76.47;102310.16;1867637;76;20137;-35
2020/12/10 00:52:29;;;;;;;;;;;;;;;-8.23;76.52;102311.67;1867362;77;20427;-36
2020/12/10 00:55:00;;;;;;;;;;;;;;;-8.25;76.53;102310.64;1867403;76;20172;-36
2020/12/10 00:57:31;;;;;;;;;;;;;;;-8.28;76.58;102316.38;1867457;76;20148;-36
2020/12/10 00:59:58;;;;;;;;;;;;;;;-8.30;76.62;102320.44;1867532;77;20120;-36
2020/12/10 01:02:26;;;;;;;;;;;;;;;-8.33;76.65;102321.85;1867645;77;20232;-36
2020/12/10 01:04:54;;;;;;;;;;;;;;;-8.35;76.74;102323.40;1867515;76;20176;-36
2020/12/10 01:07:21;;;;;;;;;;;;;;;-8.37;76.90;102316.01;1867648;77;20224;-35
2020/12/10 01:09:49;;;;;;;;;;;;;;;-8.38;76.98;102321.85;1867273;77;20176;-37
2020/12/10 01:12:17;;;;;;;;;;;;;;;-8.39;77.12;102315.88;1867293;77;20148;-37
2020/12/10 01:14:45;;;;;;;;;;;;;;;-8.39;77.17;102316.25;1867292;76;20133;-37
2020/12/10 01:17:12;;;;;;;;;;;;;;;-8.39;77.29;102308.24;1867375;77;20161;-36
2020/12/10 01:19:41;;;;;;;;;;;;;;;-8.40;77.38;102300.09;1867460;76;20379;-36
2020/12/10 01:22:09;;;;;;;;;;;;;;;-8.41;77.45;102302.16;1867449;77;20133;-36
2020/12/10 01:24:38;;;;;;;;;;;;;;;-8.42;77.54;102295.28;1867186;77;20168;-35
2020/12/10 01:27:06;;;;;;;;;;;;;;;-8.41;77.62;102292.37;1867527;77;20227;-36
2020/12/10 01:29:34;;;;;;;;;;;;;;;-8.43;77.67;102297.31;1867232;77;20141;-37
2020/12/10 01:32:03;;;;;;;;;;;;;;;-8.46;77.76;102306.83;1867473;77;20160;-35
2020/12/10 01:34:31;;;;;;;;;;;;;;;-8.46;77.83;102299.20;1867535;76;20371;-37
2020/12/10 01:36:59;;;;;;;;;;;;;;;-8.47;77.94;102293.61;1867322;77;20413;-36
2020/12/10 01:39:27;;;;;;;;;;;;;;;-8.48;77.94;102296.94;1867444;77;20223;-36
2020/12/10 01:41:55;;;;;;;;;;;;;;;-8.50;78.07;102290.82;1867158;77;20125;-36
2020/12/10 01:44:23;;;;;;;;;;;;;;;-8.52;78.13;102296.52;1867588;76;20247;-36
2020/12/10 01:46:51;;;;;;;;;;;;;;;-8.54;78.20;102292.98;1867283;77;20141;-36
2020/12/10 01:49:18;;;;;;;;;;;;;;;-8.57;78.27;102290.17;1867233;76;20160;-36
2020/12/10 01:51:46;;;;;;;;;;;;;;;-8.59;78.38;102283.67;1846122;77;20121;-35
2020/12/10 01:54:14;;;;;;;;;;;;;;;-8.61;78.52;102289.03;1867408;77;20172;-35
2020/12/10 01:56:42;;;;;;;;;;;;;;;-8.61;78.64;102286.87;1867392;76;20179;-38
2020/12/10 01:59:11;;;;;;;;;;;;;;;-8.62;78.70;102289.79;1867270;77;20259;-35
2020/12/10 02:01:39;;;;;;;;;;;;;;;-8.64;78.79;102283.67;1867300;77;20223;-35
2020/12/10 02:04:27;;;;;;;;;;;;;;;-8.63;78.89;102296.00;1867322;76;20544;-36
2020/12/10 02:06:56;;;;;;;;;;;;;;;-8.65;78.92;102300.05;1867195;76;20168;-36
2020/12/10 02:09:23;;;;;;;;;;;;;;;-8.70;79.03;102292.05;1867462;76;20227;-35
2020/12/10 02:11:52;;;;;;;;;;;;;;;-8.68;79.14;102293.08;1867215;77;20152;-36
2020/12/10 02:14:20;;;;;;;;;;;;;;;-8.69;79.25;102294.22;1867185;77;20132;-36
2020/12/10 02:16:54;;;;;;;;;;;;;;;-8.70;79.35;102284.80;1867181;77;20176;-36
2020/12/10 02:19:22;;;;;;;;;;;;;;;-8.71;79.41;102294.45;1867537;77;20176;-37
2020/12/10 02:21:51;;;;;;;;;;;;;;;-8.71;79.56;102300.80;1867350;77;20224;-35
2020/12/10 02:26:51;;;;;;;;;;;;;;;-8.68;79.71;102292.19;1918270;74;20430;-35
2020/12/10 02:29:19;;;;;;;;;;;;;;;-8.72;79.74;102292.67;1877812;75;20235;-36
2020/12/10 02:31:47;;;;;;;;;;;;;;;-8.76;79.76;102286.45;1902372;75;20274;-36
2020/12/10 02:34:15;;;;;;;;;;;;;;;-8.77;79.82;102301.55;1903311;75;20386;-37
2020/12/10 02:36:43;;;;;;;;;;;;;;;-8.80;79.90;102292.04;1903164;75;20406;-37
2020/12/10 02:39:11;;;;;;;;;;;;;;;-8.80;80.03;102283.52;1903031;75;20191;-35
2020/12/10 02:41:39;;;;;;;;;;;;;;;-8.82;80.08;102275.76;1903171;75;20120;-37
2020/12/10 02:44:08;;;;;;;;;;;;;;;-8.82;80.13;102273.59;1903304;75;20370;-36
2020/12/10 02:46:36;;;;;;;;;;;;;;;-8.81;80.21;102273.73;1903164;75;20140;-36
2020/12/10 02:49:04;;;;;;;;;;;;;;;-8.82;80.23;102265.97;1903389;75;20132;-37
2020/12/10 02:51:32;;;;;;;;;;;;;;;-8.82;80.29;102282.11;1903213;75;20290;-37
2020/12/10 02:54:00;;;;;;;;;;;;;;;-8.84;80.33;102275.10;1903381;75;20437;-38
2020/12/10 02:56:28;;;;;;;;;;;;;;;-8.86;80.41;102259.34;1903049;75;20120;-36
2020/12/10 02:58:56;;;;;;;;;;;;;;;-8.87;80.45;102270.67;1903440;75;20226;-35
2020/12/10 03:01:24;;;;;;;;;;;;;;;-8.87;80.51;102259.23;1903016;75;20190;-41
2020/12/10 03:03:52;;;;;;;;;;;;;;;-8.89;80.58;102252.75;1903209;75;20195;-35
2020/12/10 03:06:20;;;;;;;;;;;;;;;-8.89;80.66;102251.48;1903140;75;20127;-35
2020/12/10 03:08:48;;;;;;;;;;;;;;;-8.90;80.70;102265.31;1903301;75;20441;-35
2020/12/10 03:11:16;;;;;;;;;;;;;;;-8.91;80.79;102262.25;1903062;75;20267;-36
2020/12/10 03:13:44;;;;;;;;;;;;;;;-8.92;80.86;102258.81;1903470;75;20159;-37
2020/12/10 03:16:11;;;;;;;;;;;;;;;-8.92;80.90;102255.39;1903152;75;20223;-37
2020/12/10 03:18:39;;;;;;;;;;;;;;;-8.94;80.94;102245.49;1872475;75;20150;-36
2020/12/10 03:21:06;;;;;;;;;;;;;;;-8.95;80.99;102258.95;1868007;77;20150;-35
2020/12/10 03:23:34;;;;;;;;;;;;;;;-8.98;81.08;102253.59;1867891;77;20126;-36
2020/12/10 03:26:02;;;;;;;;;;;;;;;-8.99;81.14;102268.35;1867923;77;20126;-35
2020/12/10 03:28:29;;;;;;;;;;;;;;;-9.01;81.19;102270.75;1867828;77;20134;-37
2020/12/10 03:30:57;;;;;;;;;;;;;;;-9.01;81.25;102271.13;1867852;77;20181;-36
2020/12/10 03:33:25;;;;;;;;;;;;;;;-9.02;81.34;102272.77;1867867;77;20273;-36
2020/12/10 03:35:53;;;;;;;;;;;;;;;-9.02;81.39;102278.23;1867911;77;20273;-36
2020/12/10 03:38:20;;;;;;;;;;;;;;;-9.04;81.45;102279.74;1867274;77;20190;-37
2020/12/10 03:40:48;;;;;;;;;;;;;;;-9.06;81.50;102266.04;1867291;77;20134;-35
2020/12/10 03:43:16;;;;;;;;;;;;;;;-9.06;81.55;102277.09;1867700;77;20194;-38
2020/12/10 03:45:43;;;;;;;;;;;;;;;-9.06;81.60;102268.58;1867127;77;20257;-37
2020/12/10 03:48:11;;;;;;;;;;;;;;;-9.08;81.65;102268.44;1867337;77;20198;-36
2020/12/10 03:50:39;;;;;;;;;;;;;;;-9.10;81.68;102262.70;1867173;77;20134;-35
2020/12/10 03:53:07;;;;;;;;;;;;;;;-9.10;81.75;102270.32;1867364;77;20194;-37
2020/12/10 03:55:34;;;;;;;;;;;;;;;-9.11;81.82;102265.99;1867561;77;20122;-37
2020/12/10 03:58:03;;;;;;;;;;;;;;;-9.11;81.89;102274.88;1867448;77;20158;-36
2020/12/10 04:00:30;;;;;;;;;;;;;;;-9.12;81.95;102275.67;1867582;77;20142;-38
2020/12/10 04:02:58;;;;;;;;;;;;;;;-9.13;82.05;102278.59;1867476;77;20224;-36
2020/12/10 04:05:27;;;;;;;;;;;;;;;-9.13;82.11;102279.86;1867240;77;20229;-36
2020/12/10 04:07:55;;;;;;;;;;;;;;;-9.15;82.19;102273.74;1867458;77;20154;-35
2020/12/10 04:10:22;;;;;;;;;;;;;;;-9.15;82.28;102280.09;1867218;77;20316;-39
2020/12/10 04:12:50;;;;;;;;;;;;;;;-9.15;82.31;102281.36;1867285;77;20147;-37
2020/12/10 04:15:18;;;;;;;;;;;;;;;-9.17;82.35;102291.75;1867157;77;20123;-37
2020/12/10 04:17:45;;;;;;;;;;;;;;;-9.17;82.39;102289.59;1867515;77;20154;-36
2020/12/10 04:20:13;;;;;;;;;;;;;;;-9.17;82.51;102276.89;1867577;77;20190;-35
2020/12/10 04:22:41;;;;;;;;;;;;;;;-9.17;82.61;102276.89;1867452;77;20138;-36
2020/12/10 04:25:09;;;;;;;;;;;;;;;-9.15;82.71;102283.91;1867548;77;20233;-36
2020/12/10 04:27:37;;;;;;;;;;;;;;;-9.12;82.80;102276.94;1867126;77;20261;-40
2020/12/10 04:30:05;;;;;;;;;;;;;;;-9.11;82.88;102273.61;1867810;75;20209;-37
2020/12/10 04:32:33;;;;;;;;;;;;;;;-9.11;82.92;102279.97;1867233;76;20322;-36
2020/12/10 04:35:01;;;;;;;;;;;;;;;-9.11;82.96;102282.50;1867554;77;20211;-40
2020/12/10 04:37:29;;;;;;;;;;;;;;;-9.11;83.00;102283.77;1874520;76;20172;-37
2020/12/10 04:39:57;;;;;;;;;;;;;;;-9.11;83.06;102281.23;1867348;75;20160;-36
2020/12/10 04:42:24;;;;;;;;;;;;;;;-9.10;83.14;102283.91;1866969;77;20229;-42
2020/12/10 04:44:52;;;;;;;;;;;;;;;-9.09;83.21;102281.00;1867375;76;20281;-37
2020/12/10 04:47:21;;;;;;;;;;;;;;;-9.08;83.30;102284.95;1879285;75;20128;-36
2020/12/10 04:49:50;;;;;;;;;;;;;;;-9.08;83.32;102286.22;1869149;75;20226;-37
2020/12/10 04:52:18;;;;;;;;;;;;;;;-9.06;83.35;102282.55;1867374;77;20461;-36
2020/12/10 04:54:49;;;;;;;;;;;;;;;-9.06;83.38;102280.91;1872318;75;20119;-38
2020/12/10 04:57:17;;;;;;;;;;;;;;;-9.07;83.41;102280.39;1867367;77;20276;-38
2020/12/10 04:59:45;;;;;;;;;;;;;;;-9.05;83.46;102291.92;1867302;77;20174;-37
2020/12/10 05:02:13;;;;;;;;;;;;;;;-9.07;83.43;102293.09;1889843;75;20217;-37
2020/12/10 05:04:41;;;;;;;;;;;;;;;-9.05;83.48;102297.00;1902234;75;20417;-38
2020/12/10 05:07:08;;;;;;;;;;;;;;;-9.06;83.48;102302.88;1901850;75;20219;-38
2020/12/10 05:09:38;;;;;;;;;;;;;;;-9.07;83.52;102304.52;1902711;75;20223;-38
2020/12/10 05:12:18;;;;;;;;;;;;;;;-9.06;83.53;102307.95;1901904;75;20175;-39
2020/12/10 05:14:46;;;;;;;;;;;;;;;-9.06;83.57;102302.88;1867224;77;20400;-37
2020/12/10 05:17:15;;;;;;;;;;;;;;;-9.04;83.62;102308.95;1870547;75;20467;-37
2020/12/10 05:19:44;;;;;;;;;;;;;;;-9.04;83.65;102303.88;1870608;75;20126;-36
2020/12/10 05:22:11;;;;;;;;;;;;;;;-9.03;83.67;102311.63;1849653;75;20153;-37
2020/12/10 05:24:39;;;;;;;;;;;;;;;-9.02;83.76;102307.45;1894163;75;20131;-39
2020/12/10 05:27:20;;;;;;;;;;;;;;;-9.00;83.83;102305.94;1878512;75;20167;-38
2020/12/10 05:29:49;;;;;;;;;;;;;;;-8.97;83.89;102308.73;1872872;75;20520;-37
2020/12/10 05:32:43;;;;;;;;;;;;;;;-8.93;83.92;102312.96;1875434;75;20495;-37
2020/12/10 05:35:14;;;;;;;;;;;;;;;-8.93;83.94;102307.87;1862477;75;20166;-36
2020/12/10 05:37:42;;;;;;;;;;;;;;;-8.89;83.97;102314.10;1875904;75;20247;-38
2020/12/10 05:40:10;;;;;;;;;;;;;;;-8.88;83.97;102320.97;1876571;75;20186;-37
2020/12/10 05:42:44;;;;;;;;;;;;;;;-8.85;84.05;102322.48;1875926;75;20132;-39
2020/12/10 05:45:14;;;;;;;;;;;;;;;-8.80;84.08;102324.18;1872419;75;20200;-38
2020/12/10 05:47:51;;;;;;;;;;;;;;;-8.78;84.08;102329.88;1868538;75;20316;-38
2020/12/10 05:50:25;;;;;;;;;;;;;;;-8.76;84.10;102328.75;1875560;75;20176;-39
2020/12/10 05:53:08;;;;;;;;;;;;;;;-8.71;84.12;102342.74;1875641;75;20586;-38
2020/12/10 05:55:44;;;;;;;;;;;;;;;-8.67;84.17;102338.45;1870276;75;20142;-39
2020/12/10 05:58:12;;;;;;;;;;;;;;;-8.63;84.19;102345.19;1868187;75;20496;-39
2020/12/10 06:00:42;;;;;;;;;;;;;;;-8.58;84.22;102352.83;1871805;75;20174;-38
2020/12/10 06:03:09;;;;;;;;;;;;;;;-8.53;84.23;102350.67;1880044;75;20214;-39
2020/12/10 06:05:38;;;;;;;;;;;;;;;-8.50;84.22;102342.05;1880683;75;20186;-39
2020/12/10 06:08:07;;;;;;;;;;;;;;;-8.46;84.19;102339.89;1886175;75;20397;-39
2020/12/10 06:10:40;;;;;;;;;;;;;;;-8.41;84.16;102329.23;1869616;75;20189;-39
2020/12/10 06:13:09;;;;;;;;;;;;;;;-8.38;84.13;102328.20;1879453;75;20213;-36
2020/12/10 06:15:37;;;;;;;;;;;;;;;-8.34;84.11;102330.27;1869959;75;20424;-39
2020/12/10 06:18:09;;;;;;;;;;;;;;;-8.31;84.07;102325.05;1874477;75;20221;-38
2020/12/10 06:20:44;;;;;;;;;;;;;;;-8.26;84.02;102327.94;1874411;75;20189;-38
2020/12/10 06:26:51;;;;;;;;;;;;;;;-8.11;83.98;102324.14;1899251;74;20271;-39
2020/12/10 06:29:21;;;;;;;;;;;;;;;-8.11;83.95;102317.78;1861809;75;20174;-39
2020/12/10 06:32:09;;;;;;;;;;;;;;;-8.06;83.96;102336.86;1869513;75;20198;-38
2020/12/10 06:34:54;;;;;;;;;;;;;;;-8.00;83.94;102329.73;1871051;75;20141;-38
2020/12/10 06:37:27;;;;;;;;;;;;;;;-7.94;83.91;102328.97;1866984;75;20177;-37
2020/12/10 06:39:59;;;;;;;;;;;;;;;-7.88;83.87;102318.05;1835041;75;20834;-38
2020/12/10 06:42:44;;;;;;;;;;;;;;;-7.81;83.82;102320.31;1865105;76;20410;-38
2020/12/10 06:45:34;;;;;;;;;;;;;;;-7.73;83.75;102318.41;1854118;75;20202;-38
2020/12/10 06:48:06;;;;;;;;;;;;;;;-7.67;83.68;102320.17;1810463;75;20467;-39
2020/12/10 06:50:38;;;;;;;;;;;;;;;-7.59;83.59;102322.97;1860190;75;20174;-39
2020/12/10 06:53:17;;;;;;;;;;;;;;;-7.55;83.47;102316.49;1868071;75;20169;-39
2020/12/10 06:55:59;;;;;;;;;;;;;;;-7.50;83.37;102321.56;1873975;75;20209;-39
2020/12/10 06:58:41;;;;;;;;;;;;;;;-7.46;83.23;102318.48;1872611;75;20207;-39
2020/12/10 07:01:35;;;;;;;;;;;;;;;-7.43;83.10;102313.66;1841446;75;20201;-43
2020/12/10 07:04:30;;;;;;;;;;;;;;;-7.41;83.01;102306.62;1844313;75;20217;-39
2020/12/10 07:07:16;;;;;;;;;;;;;;;-7.37;82.92;102318.87;1847476;75;20144;-38
2020/12/10 07:09:47;;;;;;;;;;;;;;;-7.33;82.85;102326.36;1860288;75;20238;-39
2020/12/10 07:12:32;;;;;;;;;;;;;;;-7.28;82.76;102332.70;1842146;75;20215;-39
2020/12/10 07:15:13;;;;;;;;;;;;;;;-7.24;82.70;102329.66;1842296;75;20184;-38
2020/12/10 07:17:50;;;;;;;;;;;;;;;-7.17;82.64;102330.66;1869719;75;20190;-38
2020/12/10 07:20:20;;;;;;;;;;;;;;;-7.09;82.60;102333.44;1850140;75;20193;-39
2020/12/10 07:22:48;;;;;;;;;;;;;;;-6.98;82.54;102326.64;1868197;75;20188;-38
2020/12/10 07:25:17;;;;;;;;;;;;;;;-6.88;82.42;102329.13;1869915;75;20181;-39
2020/12/10 07:27:49;;;;;;;;;;;;;;;-6.77;82.33;102323.62;1857649;75;20424;-38
2020/12/10 07:30:19;;;;;;;;;;;;;;;-6.66;82.20;102317.69;1871536;75;20124;-38
2020/12/10 07:32:50;;;;;;;;;;;;;;;-6.57;82.01;102315.87;1881519;75;20186;-41
2020/12/10 07:35:32;;;;;;;;;;;;;;;-6.49;81.80;102312.22;1858794;75;20438;-39
2020/12/10 07:38:09;;;;;;;;;;;;;;;-6.43;81.65;102306.31;1869153;75;20119;-39
2020/12/10 07:41:01;;;;;;;;;;;;;;;-6.29;81.43;102301.89;1897214;74;20280;-39
2020/12/10 07:43:28;;;;;;;;;;;;;;;-6.28;81.30;102311.33;1859743;75;20481;-38
2020/12/10 07:45:56;;;;;;;;;;;;;;;-6.17;81.26;102303.23;1885570;75;20195;-39
2020/12/10 07:48:25;;;;;;;;;;;;;;;-6.07;81.12;102300.20;1869319;76;20158;-42
2020/12/10 07:50:55;;;;;;;;;;;;;;;-5.99;80.92;102290.95;1871781;75;20158;-43
2020/12/10 07:53:23;;;;;;;;;;;;;;;-5.95;80.73;102278.91;1871928;75;20132;-42
2020/12/10 07:55:54;;;;;;;;;;;;;;;-5.88;80.63;102279.48;1872718;75;20174;-42
2020/12/10 07:58:37;;;;;;;;;;;;;;;-5.80;80.54;102278.75;1874367;75;20273;-42
2020/12/10 08:01:05;;;;;;;;;;;;;;;-5.71;80.38;102285.41;1874351;75;20265;-42
2020/12/10 08:03:40;;;;;;;;;;;;;;;-5.65;80.20;102279.50;1875081;75;20182;-42
2020/12/10 08:06:11;;;;;;;;;;;;;;;-5.59;80.07;102274.33;1871863;75;20450;-42
2020/12/10 08:08:44;;;;;;;;;;;;;;;-5.51;79.96;102267.70;1834864;75;20308;-41
2020/12/10 08:11:18;;;;;;;;;;;;;;;-5.44;79.83;102257.15;1838677;75;20180;-42
2020/12/10 08:13:58;;;;;;;;;;;;;;;-5.35;79.71;102256.93;1876046;75;20191;-41
2020/12/10 08:16:41;;;;;;;;;;;;;;;-5.28;79.59;102249.82;1869290;75;20323;-42
2020/12/10 08:19:15;;;;;;;;;;;;;;;-5.17;79.44;102258.62;1868405;75;20241;-41
2020/12/10 08:21:44;;;;;;;;;;;;;;;-5.06;79.37;102252.62;1872849;75;20965;-42
2020/12/10 08:24:13;;;;;;;;;;;;;;;-4.95;79.22;102255.16;1873056;75;20284;-42
2020/12/10 08:26:41;;;;;;;;;;;;;;;-4.86;79.12;102255.78;1872657;75;20525;-41
2020/12/10 08:29:14;;;;;;;;;;;;;;;-4.74;78.98;102247.20;1880822;75;20221;-41
2020/12/10 08:31:42;;;;;;;;;;;;;;;-4.66;78.70;102239.67;1876261;75;20535;-41
2020/12/10 08:34:19;;;;;;;;;;;;;;;-4.62;78.44;102228.86;1873163;75;20272;-38
2020/12/10 08:36:56;;;;;;;;;;;;;;;-4.56;78.41;102227.99;1871408;75;20205;-45
2020/12/10 08:39:34;;;;;;;;;;;;;;;-4.44;78.34;102220.76;1822398;75;20202;-40
2020/12/10 08:42:08;;;;;;;;;;;;;;;-4.34;78.08;102221.39;1874398;75;20178;-43
2020/12/10 08:44:47;;;;;;;;;;;;;;;-4.32;77.74;102219.80;1870638;75;20172;-45
2020/12/10 08:47:32;;;;;;;;;;;;;;;-4.30;77.57;102222.97;1823710;75;20174;-43
2020/12/10 08:50:29;;;;;;;;;;;;;;;-4.25;77.40;102224.55;1870709;75;20166;-44
2020/12/10 08:53:09;;;;;;;;;;;;;;;-4.22;77.28;102221.81;1880628;75;20122;-42
2020/12/10 08:55:44;;;;;;;;;;;;;;;-4.14;77.35;102218.50;1869617;75;20427;-42
2020/12/10 08:58:18;;;;;;;;;;;;;;;-4.01;77.40;102228.77;1871057;75;20979;-43
2020/12/10 09:00:48;;;;;;;;;;;;;;;-3.88;77.38;102227.50;1882024;75;20183;-39
2020/12/10 09:03:19;;;;;;;;;;;;;;;-3.76;77.14;102221.90;1838703;75;20462;-42
2020/12/10 09:05:49;;;;;;;;;;;;;;;-3.71;76.88;102225.64;1869041;75;20209;-40
2020/12/10 09:08:18;;;;;;;;;;;;;;;-3.63;76.70;102228.70;1851726;75;20445;-41
2020/12/10 09:10:46;;;;;;;;;;;;;;;-3.56;76.57;102231.27;1866554;77;20259;-39
2020/12/10 09:13:14;;;;;;;;;;;;;;;-3.46;76.43;102227.20;1876517;75;20182;-41
2020/12/10 09:15:43;;;;;;;;;;;;;;;-3.36;76.24;102231.76;1877567;75;20182;-40
2020/12/10 09:18:12;;;;;;;;;;;;;;;-3.23;76.09;102224.05;1877801;75;20182;-40
2020/12/10 09:20:41;;;;;;;;;;;;;;;-3.11;75.92;102229.45;1830868;77;20133;-41
2020/12/10 09:23:10;;;;;;;;;;;;;;;-3.02;75.64;102226.19;1816748;78;20513;-48
2020/12/10 09:25:38;;;;;;;;;;;;;;;-2.96;75.33;102226.57;1799705;79;20183;-40
2020/12/10 09:28:08;;;;;;;;;;;;;;;-2.90;75.11;102225.66;1812251;78;20180;-41
2020/12/10 09:30:38;;;;;;;;;;;;;;;-2.81;74.90;102221.08;1815531;78;20291;-40
2020/12/10 09:33:08;;;;;;;;;;;;;;;-2.72;74.68;102205.36;1821115;78;20144;-43
2020/12/10 09:35:37;;;;;;;;;;;;;;;-2.63;74.39;102204.66;1802524;78;20550;-41
2020/12/10 09:38:05;;;;;;;;;;;;;;;-2.57;74.17;102197.31;1806589;78;20195;-42
2020/12/10 09:40:33;;;;;;;;;;;;;;;-2.49;73.97;102207.62;1807848;78;20304;-39
2020/12/10 09:43:04;;;;;;;;;;;;;;;-2.41;73.82;102196.13;1804692;78;20553;-38
2020/12/10 09:45:33;;;;;;;;;;;;;;;-2.30;73.60;102198.07;1807210;78;20206;-40
2020/12/10 09:48:01;;;;;;;;;;;;;;;-2.24;73.34;102194.58;1805710;78;20683;-39
2020/12/10 09:50:36;;;;;;;;;;;;;;;-2.18;73.20;102190.69;1806183;78;20194;-40
2020/12/10 09:53:13;;;;;;;;;;;;;;;-2.12;73.08;102188.47;1806841;78;20188;-39
2020/12/10 09:58:16;;;;;;;;;;;;;;;-1.96;72.87;102188.05;1803481;78;20182;-40
2020/12/10 10:00:49;;;;;;;;;;;;;;;-1.90;72.67;102173.02;1803016;78;20174;-40
2020/12/10 10:03:14;;;;;;;;;;;;;;;-1.85;72.44;102174.16;1806332;78;20235;-38
2020/12/10 10:05:45;;;;;;;;;;;;;;;-1.80;72.20;102170.15;1833226;77;20690;-38
2020/12/10 10:08:13;;;;;;;;;;;;;;;-1.77;71.95;102171.63;1834650;77;20138;-40
2020/12/10 10:10:42;;;;;;;;;;;;;;;-1.74;71.82;102171.78;1815347;78;20189;-43
2020/12/10 10:13:11;;;;;;;;;;;;;;;-1.70;71.61;102161.74;1760041;77;20208;-41
2020/12/10 10:15:41;;;;;;;;;;;;;;;-1.68;71.40;102169.55;1799590;79;20181;-40
2020/12/10 10:18:11;;;;;;;;;;;;;;;-1.64;71.25;102174.94;1784895;78;20143;-40
2020/12/10 10:20:41;;;;;;;;;;;;;;;-1.62;71.11;102175.03;1750752;80;20179;-39
2020/12/10 10:26:52;;;;;;;;;;;;;;;-1.43;71.14;102170.50;1881558;74;20194;-39
2020/12/10 10:29:21;;;;;;;;;;;;;;;-1.38;70.91;102172.95;1859440;75;20138;-39
2020/12/10 10:31:49;;;;;;;;;;;;;;;-1.33;70.68;102174.98;1861091;75;20646;-41
2020/12/10 10:34:17;;;;;;;;;;;;;;;-1.27;70.55;102179.56;1875133;75;20177;-38
2020/12/10 10:36:45;;;;;;;;;;;;;;;-1.18;70.45;102177.91;1874931;75;20194;-40
2020/12/10 10:39:13;;;;;;;;;;;;;;;-1.03;70.27;102174.45;1875708;75;20157;-38
2020/12/10 10:41:46;;;;;;;;;;;;;;;-0.82;69.83;102181.14;1872763;75;20132;-38
2020/12/10 10:44:14;;;;;;;;;;;;;;;-0.64;69.08;102170.91;1869059;75;20210;-39
2020/12/10 10:46:41;;;;;;;;;;;;;;;-0.57;68.45;102175.18;1866727;75;20208;-38
2020/12/10 10:49:09;;;;;;;;;;;;;;;-0.54;68.01;102183.48;1871431;75;20154;-38
2020/12/10 10:51:38;;;;;;;;;;;;;;;-0.57;67.71;102179.05;1870614;75;20213;-39
2020/12/10 10:54:07;;;;;;;;;;;;;;;-0.64;67.62;102179.92;1868357;75;20172;-39
2020/12/10 10:56:36;;;;;;;;;;;;;;;-0.68;67.67;102176.72;1869886;75;20234;-40
2020/12/10 10:59:04;;;;;;;;;;;;;;;-0.71;67.60;102168.42;1869053;75;20267;-40
2020/12/10 11:01:33;;;;;;;;;;;;;;;-0.74;67.63;102169.56;1868300;75;20309;-40
2020/12/10 11:04:01;;;;;;;;;;;;;;;-0.77;67.69;102175.83;1870314;75;20298;-40
2020/12/10 11:06:30;;;;;;;;;;;;;;;-0.79;67.70;102174.00;1870292;75;20301;-38
2020/12/10 11:09:02;;;;;;;;;;;;;;;-0.80;67.74;102165.38;1850602;75;20174;-38
2020/12/10 11:11:29;;;;;;;;;;;;;;;-0.81;67.79;102162.33;1868375;75;20184;-38
2020/12/10 11:14:03;;;;;;;;;;;;;;;-0.81;67.75;102154.20;1872581;75;20346;-41
2020/12/10 11:16:33;;;;;;;;;;;;;;;-0.84;67.78;102155.31;1870583;75;20178;-40
2020/12/10 11:19:01;;;;;;;;;;;;;;;-0.84;67.82;102154.02;1870508;75;20186;-44
2020/12/10 11:21:29;;;;;;;;;;;;;;;-0.83;67.87;102152.34;1869514;75;20216;-42
2020/12/10 11:23:57;;;;;;;;;;;;;;;-0.83;67.93;102161.34;1868617;75;20221;-41
2020/12/10 11:26:27;;;;;;;;;;;;;;;-0.81;68.01;102154.20;1871511;75;20182;-41
2020/12/10 11:28:55;;;;;;;;;;;;;;;-0.77;67.97;102153.05;1869400;75;20116;-41
2020/12/10 11:31:23;;;;;;;;;;;;;;;-0.75;68.00;102142.44;1869083;75;20137;-41
2020/12/10 11:33:51;;;;;;;;;;;;;;;-0.70;67.98;102146.13;1869916;75;20165;-41
2020/12/10 11:36:19;;;;;;;;;;;;;;;-0.63;67.99;102148.22;1871760;75;20307;-42
2020/12/10 11:38:47;;;;;;;;;;;;;;;-0.57;67.91;102144.67;1870041;75;20209;-42
2020/12/10 11:41:19;;;;;;;;;;;;;;;-0.49;67.87;102139.52;1871634;75;20218;-42
2020/12/10 11:43:47;;;;;;;;;;;;;;;-0.36;67.72;102144.88;1865351;75;20186;-43
2020/12/10 11:46:20;;;;;;;;;;;;;;;-0.22;67.41;102123.27;1870656;75;20186;-41
2020/12/10 11:48:49;;;;;;;;;;;;;;;-0.09;67.07;102135.95;1871441;75;20534;-39
2020/12/10 11:51:19;;;;;;;;;;;;;;;0.05;66.73;102139.22;1867444;75;20136;-43
2020/12/10 11:53:48;;;;;;;;;;;;;;;0.20;66.42;102133.08;1874112;75;20579;-36
2020/12/10 11:56:16;;;;;;;;;;;;;;;0.36;65.95;102122.70;1867011;75;20396;-38
2020/12/10 11:58:45;;;;;;;;;;;;;;;0.49;65.38;102124.56;1869214;75;20320;-40
2020/12/10 12:01:13;;;;;;;;;;;;;;;0.51;64.77;102126.82;1873213;75;20489;-39
2020/12/10 12:03:41;;;;;;;;;;;;;;;0.43;64.40;102125.17;1867576;75;20186;-38
2020/12/10 12:06:11;;;;;;;;;;;;;;;0.27;64.35;102129.11;1872701;75;20178;-39
2020/12/10 12:08:39;;;;;;;;;;;;;;;0.17;64.58;102135.94;1868514;75;20178;-38
2020/12/10 12:11:12;;;;;;;;;;;;;;;0.09;64.74;102141.12;1867364;75;20198;-39
2020/12/10 12:13:49;;;;;;;;;;;;;;;0.04;64.95;102137.44;1836026;75;20176;-43
2020/12/10 12:16:22;;;;;;;;;;;;;;;0.01;65.03;102153.63;1795741;75;20163;-41
2020/12/10 12:18:50;;;;;;;;;;;;;;;-0.07;65.13;102149.82;1866358;75;20129;-41
2020/12/10 12:21:25;;;;;;;;;;;;;;;-0.11;65.25;102144.01;1875732;75;20609;-43
2020/12/10 12:23:53;;;;;;;;;;;;;;;-0.18;65.31;102144.11;1871595;75;20213;-40
2020/12/10 12:26:30;;;;;;;;;;;;;;;-0.28;65.47;102153.89;1870761;75;20206;-41
2020/12/10 12:28:59;;;;;;;;;;;;;;;-0.34;65.72;102148.03;1867184;75;20155;-41
2020/12/10 12:31:34;;;;;;;;;;;;;;;-0.39;66.01;102155.91;1869432;75;20519;-39
2020/12/10 12:34:04;;;;;;;;;;;;;;;-0.43;66.21;102156.17;1873859;75;20192;-42
2020/12/10 12:36:34;;;;;;;;;;;;;;;-0.47;66.39;102164.56;1868485;75;20231;-42
2020/12/10 12:39:03;;;;;;;;;;;;;;;-0.49;66.59;102165.27;1871738;75;20256;-40
2020/12/10 12:41:32;;;;;;;;;;;;;;;-0.50;66.71;102176.38;1874635;75;20174;-40
2020/12/10 12:44:00;;;;;;;;;;;;;;;-0.53;66.83;102169.41;1869322;75;20205;-43
2020/12/10 12:46:28;;;;;;;;;;;;;;;-0.54;66.81;102166.73;1869492;75;20267;-39
2020/12/10 12:48:56;;;;;;;;;;;;;;;-0.58;66.75;102157.95;1869995;75;20235;-41
2020/12/10 12:51:24;;;;;;;;;;;;;;;-0.62;66.81;102166.34;1866860;75;20561;-39
2020/12/10 12:53:52;;;;;;;;;;;;;;;-0.66;66.84;102166.11;1872131;75;20579;-40
2020/12/10 12:56:22;;;;;;;;;;;;;;;-0.72;66.95;102161.50;1873114;75;20324;-40
2020/12/10 12:59:16;;;;;;;;;;;;;;;-0.77;67.07;102160.38;1830650;75;20198;-40
2020/12/10 13:01:50;;;;;;;;;;;;;;;-0.85;67.23;102164.23;1787599;75;20154;-40
2020/12/10 13:04:20;;;;;;;;;;;;;;;-0.91;67.43;102167.38;1871998;75;20177;-41
2020/12/10 13:06:50;;;;;;;;;;;;;;;-0.94;67.56;102177.92;1866713;75;20272;-41